Sand City, California
Current Conditions -  °F | °C
As of 4:54 AM on Friday 24 Oct 2014 (Local Time) from KMRY Reporting Station
Haze Haze  
Wind Chill: 55°   Ceiling: 300
Heat Index: 55°   Visibility: 4mi
Dew Point: 53°   Wind: 5mph
Humidity: 93%   Direction: 100°E
Pressure: 29.96"   Gusts: NA
Location:  36.6221°N, 121.821°W
Report Text: KMRY 241154Z AUTO 10004KT 4SM BR OVC003 13/12 A2996 RMK AO2 SLP157 T01280117 10139 20111 56005
Loading
Personal Weather Stations






























Interactive Weather Map
Tropical Storm Tracking
New forecast layout! Learn more

10-Day Weather Forecast

Advertisements
Track Severe Weather on mobile